Time;durP1;ratioP1;P1;durP2;ratioP2;P2;SDS_P1;SDS_P2;PMS_P1;PMS_P2;Temp;Humidity;BMP_temperature;BMP_pressure;BME280_temperature;BME280_humidity;BME280_pressure;Samples;Min_cycle;Max_cycle;Signal;HPM_P1;HPM_P2
2022/06/25 00:00:35;;;;;;;;;;;;;;;26.62;39.15;100520.23;105166;1303;61702;-81
2022/06/25 00:03:00;;;;;;;;;;;;;;;26.62;39.03;100516.79;105320;1301;61290;-81
2022/06/25 00:05:29;;;;;;;;;;;;;;;26.63;39.12;100513.53;105239;1300;61261;-81
2022/06/25 00:07:58;;;;;;;;;;;;;;;26.62;39.05;100510.48;105239;1303;74663;-81
2022/06/25 00:10:24;;;;;;;;;;;;;;;26.62;38.97;100509.06;105265;1302;61193;-81
2022/06/25 00:12:49;;;;;;;;;;;;;;;26.62;38.94;100509.41;105185;1303;61243;-81
2022/06/25 00:15:15;;;;;;;;;;;;;;;26.62;38.97;100508.66;105187;1302;60057;-81
2022/06/25 00:17:41;;;;;;;;;;;;;;;26.62;39.14;100505.46;105178;1302;61243;-81
2022/06/25 00:20:06;;;;;;;;;;;;;;;26.62;39.05;100504.88;105189;1303;61291;-81
2022/06/25 00:22:32;;;;;;;;;;;;;;;26.63;39.23;100501.45;105315;1301;61238;-81
2022/06/25 00:24:57;;;;;;;;;;;;;;;26.62;39.17;100504.55;104956;1303;61121;-81
2022/06/25 00:27:23;;;;;;;;;;;;;;;26.61;39.13;100502.84;105218;1303;61238;-81
2022/06/25 00:29:48;;;;;;;;;;;;;;;26.61;39.03;100502.80;104942;1302;61269;-81
2022/06/25 00:32:13;;;;;;;;;;;;;;;26.62;39.15;100502.41;105288;1301;60038;-81
2022/06/25 00:34:39;;;;;;;;;;;;;;;26.61;39.37;100504.25;105331;1301;61382;-81
2022/06/25 00:37:07;;;;;;;;;;;;;;;26.62;39.13;100507.46;105293;1301;59285;-81
2022/06/25 00:39:34;;;;;;;;;;;;;;;26.61;39.37;100507.50;105251;1303;72990;-82
2022/06/25 00:42:00;;;;;;;;;;;;;;;26.61;39.33;100505.70;105134;1302;76098;-82
2022/06/25 00:44:30;;;;;;;;;;;;;;;26.62;39.38;100508.38;105261;1302;61310;-81
2022/06/25 00:46:56;;;;;;;;;;;;;;;26.61;39.27;100510.92;105258;1302;61185;-81
2022/06/25 00:49:22;;;;;;;;;;;;;;;26.61;39.33;100509.49;105175;1301;61120;-81
2022/06/25 00:51:48;;;;;;;;;;;;;;;26.62;39.24;100507.29;105176;1303;61261;-81
2022/06/25 00:54:14;;;;;;;;;;;;;;;26.61;39.41;100505.16;105178;1302;61417;-81
2022/06/25 00:56:41;;;;;;;;;;;;;;;26.61;39.27;100502.63;105162;1303;61277;-82
2022/06/25 00:59:06;;;;;;;;;;;;;;;26.61;39.35;100501.58;105152;1302;62420;-82
2022/06/25 01:01:32;;;;;;;;;;;;;;;26.60;39.47;100495.29;105171;1303;61240;-82
2022/06/25 01:03:58;;;;;;;;;;;;;;;26.61;39.42;100497.96;105134;1301;61271;-82
2022/06/25 01:06:23;;;;;;;;;;;;;;;26.61;39.33;100502.33;105248;1303;61293;-81
2022/06/25 01:08:49;;;;;;;;;;;;;;;26.61;39.43;100503.03;105143;1301;61285;-82
2022/06/25 01:11:15;;;;;;;;;;;;;;;26.61;39.30;100501.78;105125;1303;61227;-81
2022/06/25 01:13:40;;;;;;;;;;;;;;;26.61;39.41;100503.95;105256;1301;61306;-81
2022/06/25 01:16:06;;;;;;;;;;;;;;;26.60;39.59;100501.61;105160;1302;61290;-81
2022/06/25 01:18:32;;;;;;;;;;;;;;;26.61;39.62;100505.38;105249;1303;61272;-81
2022/06/25 01:20:59;;;;;;;;;;;;;;;26.60;39.55;100503.23;105256;1301;61283;-81
2022/06/25 01:23:25;;;;;;;;;;;;;;;26.60;39.56;100503.07;104970;1303;61304;-81
2022/06/25 01:25:51;;;;;;;;;;;;;;;26.60;39.74;100498.42;105200;1302;61271;-81
2022/06/25 01:28:16;;;;;;;;;;;;;;;26.60;39.66;100498.00;105186;1302;61099;-81
2022/06/25 01:30:42;;;;;;;;;;;;;;;26.60;39.66;100502.70;105266;1303;61228;-81
2022/06/25 01:33:07;;;;;;;;;;;;;;;26.60;39.67;100502.89;105186;1302;61375;-81
2022/06/25 01:35:33;;;;;;;;;;;;;;;26.61;39.75;100502.15;105194;1301;61256;-81
2022/06/25 01:37:58;;;;;;;;;;;;;;;26.60;39.72;100503.45;105227;1303;61243;-80
2022/06/25 01:40:24;;;;;;;;;;;;;;;26.60;39.64;100504.34;105197;1303;61195;-81
2022/06/25 01:42:58;;;;;;;;;;;;;;;26.59;39.69;100504.77;105301;1301;61207;-81
2022/06/25 01:45:24;;;;;;;;;;;;;;;26.60;39.85;100506.34;105191;1302;73128;-81
2022/06/25 01:47:50;;;;;;;;;;;;;;;26.60;39.82;100507.46;105281;1303;61291;-80
2022/06/25 01:50:16;;;;;;;;;;;;;;;26.59;39.82;100509.12;105273;1303;61358;-81
2022/06/25 01:52:43;;;;;;;;;;;;;;;26.59;39.89;100515.61;104929;1302;61371;-81
2022/06/25 01:55:09;;;;;;;;;;;;;;;26.59;39.79;100524.46;105188;1303;61314;-81
2022/06/25 01:57:34;;;;;;;;;;;;;;;26.59;39.73;100526.65;105222;1303;61123;-81
2022/06/25 02:00:00;;;;;;;;;;;;;;;26.59;39.75;100527.52;105264;1303;61369;-81
2022/06/25 02:02:25;;;;;;;;;;;;;;;26.59;39.87;100529.85;105199;1302;61262;-81
2022/06/25 02:04:50;;;;;;;;;;;;;;;26.59;39.86;100533.11;105164;1302;61386;-81
2022/06/25 02:07:16;;;;;;;;;;;;;;;26.59;39.86;100536.73;105253;1301;61272;-81
2022/06/25 02:09:42;;;;;;;;;;;;;;;26.59;39.81;100537.51;105193;1303;61287;-81
2022/06/25 02:12:08;;;;;;;;;;;;;;;26.59;40.02;100536.93;105185;1302;61325;-81
2022/06/25 02:14:34;;;;;;;;;;;;;;;26.59;40.03;100540.21;105198;1302;61291;-81
2022/06/25 02:17:00;;;;;;;;;;;;;;;26.59;39.81;100538.04;105320;1303;61399;-81
2022/06/25 02:19:25;;;;;;;;;;;;;;;26.59;39.93;100538.41;105155;1303;72624;-81
2022/06/25 02:21:50;;;;;;;;;;;;;;;26.59;39.88;100539.88;105263;1302;61388;-81
2022/06/25 02:24:16;;;;;;;;;;;;;;;26.59;39.96;100541.09;105195;1303;61277;-81
2022/06/25 02:26:41;;;;;;;;;;;;;;;26.59;39.91;100543.11;105254;1301;61253;-81
2022/06/25 02:29:07;;;;;;;;;;;;;;;26.59;40.15;100546.54;105257;1303;61275;-81
2022/06/25 02:31:33;;;;;;;;;;;;;;;26.59;39.85;100549.61;105256;1302;74047;-81
2022/06/25 02:33:58;;;;;;;;;;;;;;;26.59;39.94;100554.32;105189;1302;61306;-81
2022/06/25 02:36:24;;;;;;;;;;;;;;;26.59;39.83;100556.11;105246;1301;61333;-81
2022/06/25 02:38:49;;;;;;;;;;;;;;;26.59;40.12;100552.70;105184;1302;61414;-81
2022/06/25 02:41:15;;;;;;;;;;;;;;;26.59;40.02;100551.61;105325;1301;61259;-81
2022/06/25 02:43:40;;;;;;;;;;;;;;;26.59;39.94;100555.78;105176;1303;61377;-81
2022/06/25 02:46:06;;;;;;;;;;;;;;;26.58;40.29;100557.59;105154;1303;61352;-81
2022/06/25 02:48:31;;;;;;;;;;;;;;;26.58;39.99;100559.05;105172;1302;61296;-81
2022/06/25 02:50:57;;;;;;;;;;;;;;;26.58;40.25;100559.59;105244;1302;61209;-81
2022/06/25 02:53:22;;;;;;;;;;;;;;;26.58;39.94;100561.40;105298;1301;61275;-81
2022/06/25 03:01:36;;;;;;;;;;;;;;;26.58;40.20;100561.77;104642;1307;61505;-81
2022/06/25 03:04:01;;;;;;;;;;;;;;;26.58;40.32;100559.96;104654;1306;61378;-81
2022/06/25 03:06:27;;;;;;;;;;;;;;;26.59;40.25;100560.10;104622;1307;61284;-81
2022/06/25 03:08:53;;;;;;;;;;;;;;;26.58;40.36;100558.85;104662;1307;61324;-81
2022/06/25 03:11:20;;;;;;;;;;;;;;;26.58;40.48;100560.44;104655;1306;61326;-81
2022/06/25 03:13:45;;;;;;;;;;;;;;;26.58;40.41;100560.48;104646;1308;61378;-81
2022/06/25 03:16:11;;;;;;;;;;;;;;;26.59;40.30;100560.08;104695;1306;61485;-81
2022/06/25 03:18:37;;;;;;;;;;;;;;;26.59;40.28;100559.67;104630;1306;73770;-81
2022/06/25 03:21:03;;;;;;;;;;;;;;;26.59;40.50;100562.75;104643;1306;61439;-81
2022/06/25 03:23:28;;;;;;;;;;;;;;;26.59;40.39;100567.42;104692;1307;61259;-81
2022/06/25 03:25:53;;;;;;;;;;;;;;;26.59;40.34;100568.70;104651;1306;61378;-81
2022/06/25 03:28:19;;;;;;;;;;;;;;;26.60;40.37;100569.55;104704;1306;61449;-81
2022/06/25 03:30:45;;;;;;;;;;;;;;;26.59;40.46;100566.14;104605;1308;73720;-81
2022/06/25 03:33:10;;;;;;;;;;;;;;;26.60;40.34;100565.92;105020;1303;62100;-81
2022/06/25 03:35:36;;;;;;;;;;;;;;;26.59;40.39;100567.42;105147;1303;61160;-81
2022/06/25 03:38:01;;;;;;;;;;;;;;;26.59;40.43;100576.42;105160;1301;61256;-81
2022/06/25 03:40:27;;;;;;;;;;;;;;;26.60;40.45;100576.00;105307;1302;61372;-81
2022/06/25 03:42:52;;;;;;;;;;;;;;;26.59;40.27;100574.09;105153;1302;72821;-81
2022/06/25 03:45:18;;;;;;;;;;;;;;;26.59;40.51;100571.91;105193;1301;61339;-81
2022/06/25 03:47:50;;;;;;;;;;;;;;;26.59;40.56;100572.45;105165;1301;61469;-81
2022/06/25 03:50:16;;;;;;;;;;;;;;;26.59;40.39;100573.54;105257;1303;61278;-81
2022/06/25 03:52:42;;;;;;;;;;;;;;;26.60;40.60;100575.29;104940;1303;61245;-81
2022/06/25 03:55:08;;;;;;;;;;;;;;;26.60;40.37;100574.95;105132;1301;61257;-81
2022/06/25 03:57:34;;;;;;;;;;;;;;;26.60;40.31;100576.56;105170;1303;61340;-81
2022/06/25 03:59:59;;;;;;;;;;;;;;;26.60;40.68;100575.45;105154;1302;61278;-81
2022/06/25 04:02:25;;;;;;;;;;;;;;;26.60;40.35;100573.99;105185;1303;61343;-81
2022/06/25 04:04:50;;;;;;;;;;;;;;;26.61;40.58;100576.32;105247;1301;61281;-81
2022/06/25 04:07:16;;;;;;;;;;;;;;;26.60;40.51;100577.97;105217;1301;76020;-81
2022/06/25 04:09:42;;;;;;;;;;;;;;;26.60;40.49;100576.16;105255;1302;61271;-81
2022/06/25 04:12:07;;;;;;;;;;;;;;;26.61;40.43;100574.67;105252;1303;61272;-81
2022/06/25 04:14:33;;;;;;;;;;;;;;;26.62;40.41;100575.70;105251;1301;61203;-81
2022/06/25 04:16:58;;;;;;;;;;;;;;;26.62;40.60;100580.88;105176;1303;62066;-81
2022/06/25 04:19:24;;;;;;;;;;;;;;;26.62;40.57;100582.15;105310;1301;61396;-81
2022/06/25 04:21:51;;;;;;;;;;;;;;;26.62;40.45;100585.57;105192;1303;61345;-81
2022/06/25 04:24:16;;;;;;;;;;;;;;;26.63;40.65;100586.77;105145;1303;61338;-81
2022/06/25 04:26:42;;;;;;;;;;;;;;;26.63;40.47;100588.75;105164;1303;61354;-81
2022/06/25 04:29:08;;;;;;;;;;;;;;;26.63;40.53;100585.86;105146;1303;59332;-82
2022/06/25 04:31:34;;;;;;;;;;;;;;;26.63;40.52;100584.92;105265;1303;61285;-82
2022/06/25 04:34:00;;;;;;;;;;;;;;;26.64;40.49;100585.56;105154;1303;59264;-81
2022/06/25 04:36:26;;;;;;;;;;;;;;;26.64;40.50;100594.41;105188;1303;61834;-81
2022/06/25 04:38:51;;;;;;;;;;;;;;;26.64;40.50;100594.38;105184;1303;61168;-81
2022/06/25 04:41:18;;;;;;;;;;;;;;;26.65;40.69;100601.21;105204;1302;75994;-81
2022/06/25 04:43:43;;;;;;;;;;;;;;;26.64;40.55;100601.27;105152;1301;61256;-81
2022/06/25 04:46:08;;;;;;;;;;;;;;;26.65;40.68;100602.50;105150;1303;61255;-81
2022/06/25 04:48:34;;;;;;;;;;;;;;;26.64;40.46;100601.95;105171;1303;61368;-81
2022/06/25 04:50:59;;;;;;;;;;;;;;;26.65;40.86;100606.62;105199;1301;61297;-80
2022/06/25 04:53:25;;;;;;;;;;;;;;;26.65;40.63;100608.05;104930;1302;76739;-81
2022/06/25 04:55:51;;;;;;;;;;;;;;;26.66;40.62;100610.65;105302;1301;61280;-81
2022/06/25 04:58:17;;;;;;;;;;;;;;;26.67;40.58;100615.11;105230;1302;61246;-81
2022/06/25 05:00:42;;;;;;;;;;;;;;;26.66;40.59;100617.81;105235;1303;61236;-81
2022/06/25 05:03:08;;;;;;;;;;;;;;;26.67;40.80;100619.95;105140;1302;61383;-81
2022/06/25 05:05:33;;;;;;;;;;;;;;;26.66;40.70;100623.05;105284;1302;61326;-81
2022/06/25 05:07:59;;;;;;;;;;;;;;;26.66;40.83;100625.60;105177;1301;61271;-81
2022/06/25 05:10:24;;;;;;;;;;;;;;;26.66;40.98;100630.30;105155;1303;61338;-81
2022/06/25 05:15:35;;;;;;;;;;;;;;;26.66;40.89;100629.40;104940;1303;74689;-81
2022/06/25 05:18:00;;;;;;;;;;;;;;;26.66;40.92;100625.09;105150;1303;61159;-81
2022/06/25 05:20:26;;;;;;;;;;;;;;;26.66;40.85;100627.30;105111;1303;61291;-81
2022/06/25 05:22:52;;;;;;;;;;;;;;;26.66;40.97;100635.24;105247;1303;61255;-81
2022/06/25 05:25:18;;;;;;;;;;;;;;;26.65;40.98;100637.60;105180;1303;61319;-81
2022/06/25 05:27:43;;;;;;;;;;;;;;;26.65;41.20;100634.25;105195;1303;61484;-80
2022/06/25 05:30:09;;;;;;;;;;;;;;;26.65;41.14;100632.19;105281;1301;61354;-81
2022/06/25 05:32:35;;;;;;;;;;;;;;;26.66;41.05;100638.98;105190;1303;61526;-81
2022/06/25 05:35:01;;;;;;;;;;;;;;;26.67;41.17;100640.86;105178;1302;61410;-81
2022/06/25 05:37:26;;;;;;;;;;;;;;;26.68;41.12;100634.96;105262;1303;61253;-81
2022/06/25 05:39:52;;;;;;;;;;;;;;;26.69;41.19;100631.82;104952;1302;61354;-81
2022/06/25 05:42:17;;;;;;;;;;;;;;;26.70;41.32;100632.83;105140;1303;61430;-80
2022/06/25 05:44:46;;;;;;;;;;;;;;;26.70;41.22;100634.77;105322;1303;61300;-81
2022/06/25 05:47:11;;;;;;;;;;;;;;;26.72;41.19;100638.45;105114;1303;72577;-81
2022/06/25 05:49:44;;;;;;;;;;;;;;;26.73;41.03;100642.46;105266;1303;75833;-81
2022/06/25 05:52:10;;;;;;;;;;;;;;;26.74;41.29;100639.13;104933;1302;61320;-81
2022/06/25 05:54:36;;;;;;;;;;;;;;;26.75;41.29;100640.08;105197;1302;61287;-81
2022/06/25 05:57:01;;;;;;;;;;;;;;;26.76;41.23;100639.15;105181;1303;61365;-81
2022/06/25 05:59:27;;;;;;;;;;;;;;;26.76;41.41;100643.23;105228;1302;61250;-81
2022/06/25 06:01:52;;;;;;;;;;;;;;;26.77;41.27;100642.62;105309;1302;61287;-80
2022/06/25 06:04:18;;;;;;;;;;;;;;;26.78;41.27;100646.17;105260;1301;61248;-81
2022/06/25 06:06:44;;;;;;;;;;;;;;;26.79;41.19;100643.58;105263;1303;61304;-81
2022/06/25 06:09:10;;;;;;;;;;;;;;;26.79;41.34;100642.63;105015;1302;61438;-81
2022/06/25 06:11:36;;;;;;;;;;;;;;;26.79;41.34;100639.49;105169;1301;81274;-81
2022/06/25 06:14:01;;;;;;;;;;;;;;;26.80;41.10;100641.09;105131;1302;61259;-81
2022/06/25 06:16:27;;;;;;;;;;;;;;;26.80;41.30;100635.17;105224;1302;61288;-81
2022/06/25 06:18:52;;;;;;;;;;;;;;;26.80;41.34;100636.39;105251;1303;61118;-81
2022/06/25 06:21:17;;;;;;;;;;;;;;;26.80;41.20;100631.88;105185;1301;61399;-81
2022/06/25 06:23:43;;;;;;;;;;;;;;;26.79;41.45;100629.78;105245;1303;61377;-81
2022/06/25 06:26:09;;;;;;;;;;;;;;;26.80;41.50;100631.34;105169;1302;61274;-81
2022/06/25 06:28:35;;;;;;;;;;;;;;;26.80;41.56;100632.19;104809;1303;591832;-81
2022/06/25 06:31:01;;;;;;;;;;;;;;;26.81;41.14;100632.34;105242;1303;61387;-81
2022/06/25 06:33:26;;;;;;;;;;;;;;;26.82;41.29;100625.71;105180;1301;73573;-81
2022/06/25 06:35:52;;;;;;;;;;;;;;;26.83;41.51;100621.66;105140;1301;61294;-81
2022/06/25 06:38:17;;;;;;;;;;;;;;;26.83;41.45;100620.34;104931;1302;61208;-81
2022/06/25 06:40:43;;;;;;;;;;;;;;;26.84;41.51;100621.17;105196;1303;61218;-81
2022/06/25 06:43:09;;;;;;;;;;;;;;;26.85;41.63;100620.23;105283;1303;61268;-81
2022/06/25 06:45:35;;;;;;;;;;;;;;;26.86;41.31;100615.23;105286;1303;61237;-81
2022/06/25 06:48:00;;;;;;;;;;;;;;;26.86;41.40;100611.55;105074;1302;73683;-81
2022/06/25 06:50:26;;;;;;;;;;;;;;;26.87;41.48;100613.67;105188;1302;61997;-81
2022/06/25 06:52:52;;;;;;;;;;;;;;;26.87;41.44;100617.59;105265;1302;61248;-81
2022/06/25 06:55:17;;;;;;;;;;;;;;;26.88;41.41;100615.21;105137;1302;61268;-81
2022/06/25 06:57:43;;;;;;;;;;;;;;;26.88;41.44;100614.06;105181;1302;61387;-81
2022/06/25 07:00:08;;;;;;;;;;;;;;;26.89;41.64;100607.67;105298;1301;61243;-81
2022/06/25 07:02:34;;;;;;;;;;;;;;;26.89;41.41;100607.85;105104;1302;61349;-81
2022/06/25 07:05:00;;;;;;;;;;;;;;;26.89;41.59;100603.69;104902;1303;61240;-81
2022/06/25 07:07:25;;;;;;;;;;;;;;;26.90;41.56;100600.21;105121;1302;71532;-81
2022/06/25 07:09:50;;;;;;;;;;;;;;;26.90;41.79;100599.98;105232;1302;61336;-81
2022/06/25 07:12:16;;;;;;;;;;;;;;;26.91;41.52;100601.19;105161;1301;61362;-81
2022/06/25 07:14:41;;;;;;;;;;;;;;;26.91;41.63;100600.26;105152;1303;61297;-81
2022/06/25 07:17:07;;;;;;;;;;;;;;;26.91;41.69;100599.88;105113;1302;61240;-81
2022/06/25 07:19:32;;;;;;;;;;;;;;;26.91;41.71;100597.88;105257;1303;61286;-81
2022/06/25 07:21:58;;;;;;;;;;;;;;;26.91;41.56;100592.44;105260;1302;61266;-81
2022/06/25 07:24:24;;;;;;;;;;;;;;;26.92;41.59;100595.64;105292;1303;61281;-81
2022/06/25 07:26:49;;;;;;;;;;;;;;;26.92;41.78;100595.09;105158;1303;61432;-81
2022/06/25 07:29:15;;;;;;;;;;;;;;;26.92;41.84;100593.30;105255;1302;61266;-81
2022/06/25 07:31:40;;;;;;;;;;;;;;;26.92;41.62;100594.90;105079;1302;61281;-81
2022/06/25 07:34:05;;;;;;;;;;;;;;;26.93;41.59;100598.83;105168;1303;61317;-81
2022/06/25 07:36:31;;;;;;;;;;;;;;;26.93;41.73;100598.82;104992;1302;61275;-80
2022/06/25 07:38:57;;;;;;;;;;;;;;;26.93;41.60;100599.33;105054;1302;62077;-81
2022/06/25 07:41:23;;;;;;;;;;;;;;;26.93;41.82;100601.16;105031;1302;61229;-81
2022/06/25 07:43:48;;;;;;;;;;;;;;;26.92;41.91;100604.60;105261;1302;61354;-81
2022/06/25 07:46:14;;;;;;;;;;;;;;;26.92;41.63;100605.33;105129;1303;61377;-81
2022/06/25 07:48:40;;;;;;;;;;;;;;;26.93;41.87;100606.41;105114;1303;61288;-81
2022/06/25 07:53:51;;;;;;;;;;;;;;;26.93;41.94;100609.21;105251;1303;61269;-81
2022/06/25 07:56:16;;;;;;;;;;;;;;;26.94;41.60;100604.30;105198;1303;62058;-81
2022/06/25 07:58:42;;;;;;;;;;;;;;;26.93;41.79;100600.00;105200;1302;61444;-81
2022/06/25 08:01:07;;;;;;;;;;;;;;;26.93;41.90;100593.91;104935;1302;61273;-81
2022/06/25 08:03:33;;;;;;;;;;;;;;;26.93;41.71;100596.95;105252;1302;61296;-81
2022/06/25 08:05:59;;;;;;;;;;;;;;;26.94;41.67;100598.17;105204;1301;61237;-81
2022/06/25 08:08:24;;;;;;;;;;;;;;;26.94;41.59;100594.55;105186;1302;61294;-81
2022/06/25 08:10:51;;;;;;;;;;;;;;;26.94;41.79;100594.55;105178;1302;61357;-81
2022/06/25 08:13:16;;;;;;;;;;;;;;;26.94;41.82;100595.98;105248;1303;61362;-81
2022/06/25 08:15:42;;;;;;;;;;;;;;;26.94;41.88;100601.40;105036;1302;61135;-81
2022/06/25 08:18:07;;;;;;;;;;;;;;;26.95;41.79;100601.20;105170;1302;61370;-81
2022/06/25 08:20:33;;;;;;;;;;;;;;;26.95;41.79;100601.51;105008;1302;61339;-81
2022/06/25 08:22:59;;;;;;;;;;;;;;;26.95;41.69;100600.99;105098;1303;61399;-81
2022/06/25 08:25:24;;;;;;;;;;;;;;;26.95;41.77;100600.25;105149;1303;61272;-81
2022/06/25 08:27:50;;;;;;;;;;;;;;;26.96;41.78;100601.65;105171;1301;61258;-81
2022/06/25 08:30:17;;;;;;;;;;;;;;;26.95;41.97;100597.71;105166;1303;60005;-81
2022/06/25 08:32:42;;;;;;;;;;;;;;;26.95;41.81;100592.27;105162;1302;61288;-81
2022/06/25 08:35:08;;;;;;;;;;;;;;;26.95;41.90;100592.98;104981;1302;61422;-81
2022/06/25 08:37:37;;;;;;;;;;;;;;;26.96;41.95;100595.45;104908;1302;61285;-81
2022/06/25 08:40:05;;;;;;;;;;;;;;;26.96;41.88;100591.30;104907;1303;61283;-81
2022/06/25 08:42:30;;;;;;;;;;;;;;;26.96;42.12;100592.17;105080;1303;73970;-81
2022/06/25 08:44:56;;;;;;;;;;;;;;;26.97;41.98;100591.94;104904;1301;61415;-81
2022/06/25 08:47:21;;;;;;;;;;;;;;;26.97;41.87;100592.23;104925;1302;61221;-81
2022/06/25 08:49:47;;;;;;;;;;;;;;;26.97;41.84;100588.63;104922;1302;61255;-81
2022/06/25 08:52:12;;;;;;;;;;;;;;;26.98;41.87;100591.10;105034;1302;61292;-81
2022/06/25 08:54:38;;;;;;;;;;;;;;;26.98;41.88;100591.99;105148;1303;72995;-81
2022/06/25 08:57:03;;;;;;;;;;;;;;;26.98;41.89;100593.81;105179;1303;61276;-81
2022/06/25 08:59:30;;;;;;;;;;;;;;;26.98;41.97;100593.42;105138;1303;61429;-81
2022/06/25 09:01:55;;;;;;;;;;;;;;;26.98;41.97;100591.52;105171;1303;61272;-81
2022/06/25 09:04:21;;;;;;;;;;;;;;;26.98;41.85;100589.65;105172;1302;62284;-80
2022/06/25 09:06:46;;;;;;;;;;;;;;;26.98;41.93;100591.85;105218;1302;61362;-81
2022/06/25 09:09:16;;;;;;;;;;;;;;;26.98;41.95;100591.13;104955;1303;61226;-81
2022/06/25 09:11:58;;;;;;;;;;;;;;;26.97;41.94;100591.91;104957;1302;61154;-81
2022/06/25 09:14:25;;;;;;;;;;;;;;;26.97;41.81;100591.04;104780;1302;61371;-81
2022/06/25 09:17:01;;;;;;;;;;;;;;;26.97;41.94;100590.13;105662;1302;73796;-82
2022/06/25 09:19:47;;;;;;;;;;;;;;;26.98;42.05;100590.92;104907;1302;74648;-81
2022/06/25 09:22:14;;;;;;;;;;;;;;;26.98;41.99;100593.67;104888;1302;61252;-81
2022/06/25 09:24:44;;;;;;;;;;;;;;;26.97;41.98;100594.78;104944;1302;61150;-81
2022/06/25 09:27:10;;;;;;;;;;;;;;;26.97;41.90;100595.31;105480;1302;71309;-81
2022/06/25 09:29:43;;;;;;;;;;;;;;;26.98;42.26;100594.52;104774;1303;61227;-81
2022/06/25 09:32:08;;;;;;;;;;;;;;;26.98;42.27;100595.61;104693;1302;61188;-81
2022/06/25 09:34:34;;;;;;;;;;;;;;;26.98;42.10;100591.83;104688;1302;61305;-81
2022/06/25 09:37:16;;;;;;;;;;;;;;;26.98;41.89;100593.05;104977;1302;61227;-81
2022/06/25 09:39:41;;;;;;;;;;;;;;;26.99;42.00;100594.98;105141;1302;75718;-81
2022/06/25 09:42:07;;;;;;;;;;;;;;;26.99;42.14;100593.90;105142;1302;61386;-81
2022/06/25 09:44:33;;;;;;;;;;;;;;;26.98;42.03;100592.34;104919;1302;61247;-81
2022/06/25 09:46:58;;;;;;;;;;;;;;;26.98;42.19;100595.05;105031;1303;61362;-81
2022/06/25 09:49:25;;;;;;;;;;;;;;;26.99;41.91;100596.64;104942;1302;61475;-81
2022/06/25 09:52:00;;;;;;;;;;;;;;;26.98;41.89;100590.73;105199;1302;61390;-81
2022/06/25 09:54:26;;;;;;;;;;;;;;;26.98;41.83;100588.39;105057;1302;61471;-81
2022/06/25 09:56:51;;;;;;;;;;;;;;;26.97;41.99;100591.69;105031;1302;61376;-81
2022/06/25 09:59:17;;;;;;;;;;;;;;;26.97;41.98;100595.52;105206;1301;61291;-81
2022/06/25 10:01:42;;;;;;;;;;;;;;;26.96;42.08;100597.39;105150;1302;61262;-81
2022/06/25 10:04:08;;;;;;;;;;;;;;;26.97;41.95;100595.23;104959;1303;61263;-81
2022/06/25 10:06:34;;;;;;;;;;;;;;;26.96;41.92;100594.88;105005;1302;61677;-81
2022/06/25 10:09:00;;;;;;;;;;;;;;;26.96;41.97;100594.71;104938;1303;61275;-80
2022/06/25 10:11:26;;;;;;;;;;;;;;;26.95;41.90;100592.10;104945;1302;61355;-81
2022/06/25 10:13:51;;;;;;;;;;;;;;;26.95;41.91;100589.83;104981;1303;61278;-81
2022/06/25 10:16:18;;;;;;;;;;;;;;;26.94;41.88;100590.57;105183;1302;61412;-81
2022/06/25 10:18:44;;;;;;;;;;;;;;;26.93;41.88;100587.20;105126;1303;61227;-81
2022/06/25 10:21:10;;;;;;;;;;;;;;;26.93;41.98;100585.98;105093;1301;61985;-81
2022/06/25 10:23:36;;;;;;;;;;;;;;;26.92;41.89;100582.26;105035;1302;61352;-81
2022/06/25 10:26:02;;;;;;;;;;;;;;;26.92;41.98;100582.60;105124;1303;61297;-81
2022/06/25 10:28:28;;;;;;;;;;;;;;;26.92;42.03;100583.17;105295;1301;61294;-81
2022/06/25 10:30:56;;;;;;;;;;;;;;;26.92;41.96;100579.39;105152;1302;72610;-81
2022/06/25 10:33:25;;;;;;;;;;;;;;;26.92;42.04;100578.09;105166;1303;74714;-81
2022/06/25 10:35:52;;;;;;;;;;;;;;;26.92;42.05;100575.96;105145;1301;61249;-81
2022/06/25 10:38:18;;;;;;;;;;;;;;;26.92;41.93;100577.01;105049;1302;63047;-81
2022/06/25 10:40:50;;;;;;;;;;;;;;;26.92;42.02;100567.98;104972;1302;61304;-81
2022/06/25 10:43:34;;;;;;;;;;;;;;;26.93;41.84;100561.10;104948;1301;76082;-81
2022/06/25 10:46:10;;;;;;;;;;;;;;;26.93;42.11;100565.73;104982;1301;61272;-81
2022/06/25 10:48:35;;;;;;;;;;;;;;;26.93;42.07;100559.92;104911;1302;61306;-81
2022/06/25 10:51:01;;;;;;;;;;;;;;;26.94;42.06;100557.35;104914;1303;61397;-81
2022/06/25 10:53:26;;;;;;;;;;;;;;;26.95;42.22;100559.46;104941;1303;61241;-81
2022/06/25 10:55:51;;;;;;;;;;;;;;;26.95;42.03;100562.91;104956;1302;61358;-81
2022/06/25 10:58:23;;;;;;;;;;;;;;;26.95;42.03;100560.91;105237;1303;61282;-81
2022/06/25 11:01:00;;;;;;;;;;;;;;;26.96;41.87;100556.48;104898;1303;61150;-81
2022/06/25 11:03:32;;;;;;;;;;;;;;;26.96;42.05;100554.11;105123;1303;71757;-81
2022/06/25 11:05:59;;;;;;;;;;;;;;;26.96;41.85;100557.91;105114;1303;74749;-81
2022/06/25 11:08:37;;;;;;;;;;;;;;;26.96;41.90;100560.23;105122;1303;61251;-81
2022/06/25 11:11:03;;;;;;;;;;;;;;;26.96;41.85;100559.36;105109;1302;61204;-81
2022/06/25 11:13:29;;;;;;;;;;;;;;;26.96;41.91;100558.06;105231;1301;73007;-81
2022/06/25 11:15:54;;;;;;;;;;;;;;;26.96;41.68;100558.10;105092;1303;61381;-81
2022/06/25 11:18:20;;;;;;;;;;;;;;;26.95;41.70;100560.36;105171;1303;61281;-81
2022/06/25 11:20:46;;;;;;;;;;;;;;;26.95;42.09;100557.59;104956;1303;61438;-81
2022/06/25 11:23:14;;;;;;;;;;;;;;;26.95;41.79;100558.20;105149;1303;61314;-82
2022/06/25 11:28:48;;;;;;;;;;;;;;;26.95;41.90;100561.11;105230;1300;61277;-82
2022/06/25 11:31:14;;;;;;;;;;;;;;;26.95;41.73;100559.63;105262;1302;61269;-81
2022/06/25 11:33:40;;;;;;;;;;;;;;;26.95;41.65;100556.03;105207;1303;61378;-81
2022/06/25 11:36:10;;;;;;;;;;;;;;;26.95;41.97;100555.66;105114;1302;61136;-81
2022/06/25 11:38:36;;;;;;;;;;;;;;;26.95;41.86;100553.33;105107;1302;61135;-82
2022/06/25 11:41:02;;;;;;;;;;;;;;;26.93;41.96;100550.33;105152;1303;61248;-82
2022/06/25 11:43:28;;;;;;;;;;;;;;;26.95;41.79;100554.08;105188;1302;61301;-82
2022/06/25 11:45:58;;;;;;;;;;;;;;;26.95;41.78;100551.36;105157;1302;61221;-83
2022/06/25 11:48:24;;;;;;;;;;;;;;;26.94;41.77;100548.86;104991;1302;62184;-83
2022/06/25 11:50:53;;;;;;;;;;;;;;;26.93;41.73;100548.71;105108;1303;61280;-83
2022/06/25 11:53:18;;;;;;;;;;;;;;;26.94;41.80;100546.86;105123;1303;73789;-83
2022/06/25 11:55:55;;;;;;;;;;;;;;;26.94;41.71;100547.80;105113;1302;61286;-83
2022/06/25 11:58:20;;;;;;;;;;;;;;;26.94;41.90;100545.23;105105;1300;61487;-82
2022/06/25 12:00:45;;;;;;;;;;;;;;;26.95;41.91;100545.03;105050;1301;61362;-82
2022/06/25 12:03:11;;;;;;;;;;;;;;;26.95;41.78;100542.15;105101;1302;61266;-82
2022/06/25 12:05:37;;;;;;;;;;;;;;;26.94;41.97;100542.17;105126;1303;61289;-82
2022/06/25 12:08:02;;;;;;;;;;;;;;;26.94;41.75;100539.64;105011;1303;61265;-82
2022/06/25 12:10:28;;;;;;;;;;;;;;;26.94;41.97;100540.02;105055;1303;61392;-82
2022/06/25 12:12:53;;;;;;;;;;;;;;;26.94;41.85;100541.98;104868;1306;61521;-82
2022/06/25 12:15:20;;;;;;;;;;;;;;;26.95;41.88;100542.86;104840;1305;61250;-82
2022/06/25 12:17:45;;;;;;;;;;;;;;;26.94;41.75;100544.17;104697;1305;61236;-82
2022/06/25 12:20:11;;;;;;;;;;;;;;;26.94;41.80;100546.70;104595;1305;61295;-82
2022/06/25 12:22:38;;;;;;;;;;;;;;;26.94;41.82;100547.95;104434;1306;61267;-82
2022/06/25 12:25:04;;;;;;;;;;;;;;;26.95;41.76;100544.83;104606;1305;61258;-81
2022/06/25 12:27:29;;;;;;;;;;;;;;;26.95;41.86;100545.91;104627;1305;61348;-82
2022/06/25 12:29:56;;;;;;;;;;;;;;;26.95;41.92;100547.84;104650;1305;74360;-81
2022/06/25 12:32:37;;;;;;;;;;;;;;;26.95;42.00;100548.17;104806;1305;61152;-82
2022/06/25 12:35:04;;;;;;;;;;;;;;;26.96;41.94;100551.02;104662;1304;61745;-82